Terminal Aerodrome Forecast
Issued by NWS Raleigh/Durham, NC

Home | Current Version | Previous Version | Text Only | Print | Product List | Glossary On
Versions: 1 2 3 4 5 6 7 8 9 10 11 12 13 14 15 16 17 18 19 20 21 22 23 24 25 26 27 28
000
FTUS42 KRAH 181059 AAB
TAFRDU
TAF AMD
KRDU 181059Z 1811/1906 21006KT 6SM BR FEW003 BKN007
      TEMPO 1811/1814 4SM BR
     FM181400 21006KT P6SM SCT040
     FM181900 22009KT P6SM BKN050 PROB30 1823/1903 VRB15G25KT 2SM
      TSRA BKN025CB=

USA.gov is the U.S. government's official web portal to all federal, state and local government web resources and services.